PATC

Details ICAO PATC (TNC)
Name TIN CITY LRRS
Region USA (Alaska)
Timezone America/Nome (UTC-9.0)
Plans Departing 10
Arriving 7
Stats Elevation 271 ft / 83 m (AMSL)
Location 65.564035° -167.922454°
Runways 1
Magnetic Variation 8.852° E
Sunrise 2017-12-15 21:30:11 UTC / 2017-12-15 12:30:11 Local
Sunset 2017-12-16 00:46:44 UTC / 2017-12-15 15:46:44 Local
Advertisement - Login to hide

Runways

ID Width Length Bearing (true) Bearing (mag) Surface Threshold Offset Overrun Length
16 135 ft / 41 m 4,693 ft / 1,430 m 174.59° 165.74° Gravel 0 ft / 0 m 0 ft / 0 m
34 135 ft / 41 m 4,693 ft / 1,430 m 354.59° 345.74° Gravel 0 ft / 0 m 0 ft / 0 m

Map

Weather


0- 5 10 15 20 25 30 35+ Temperature / ° C

Clouds and Precipitation
Forecast for 2017-12-16 12:00 UTC. Updated 14 minutes ago

Ground ~20,000 ft ~40,000 ft Winds

METAR

PATC 160729Z AUTO 04025KT 3/4SM -FZDZ BR OVC004 M06/M06 A2916

TAF

Not found

Frequencies

Unicom 126.20 MHz CTAF/UNICOM
Warning: Do not use this data for real-world aviation or navigation. No guarantee of current accuracy is given.